Belle Isle Bank: Past 24 Hour Conditions

 

Sagona Island

05:30 AM NST 29 November 2014
This table is a summary of hourly weather conditions for the past 24 hours.
Date / Time
(NST)
Wind(knots) Conditions Visibility(km) Pressure(kPa) Air tempC) Relative humidity(%) Dew pointC) Wind Chill
29 November 2014
5:30 NNE 15 N/A N/A 100.9 -1 87 -3 -8
4:30 N 17 N/A N/A 100.9 -2 91 -3 -9
3:30 NNE 15 gust 23 N/A N/A 100.8 -1 92 -2 -8
2:30 NNE 20 N/A N/A 100.7 -1 90 -3 -9
1:30 N 23 N/A N/A 100.7 -1 93 -2 -9
0:30 NNE 19 N/A N/A 100.7 -1 94 -2 -8
28 November 2014
23:30 NNE 19 gust 25 N/A N/A 100.7 -1 93 -2 -8
22:30 NNE 20 N/A N/A 100.7 -1 95 -2 -8
21:30 NNE 18 gust 24 N/A N/A 100.8 -1 95 -1 -8
20:30 NE 18 gust 24 N/A N/A 100.9 -1 92 -2 -8
19:30 NNE 21 N/A N/A 100.9 0 92 -2 -8
18:30 NNE 20 N/A N/A 100.8 0 89 -2 -7
17:30 NNE 14 gust 21 N/A N/A 101.0 0 90 -2 -6
16:30 NNE 13 N/A N/A 101.1 0 81 -3 -6
15:30 NNE 21 N/A N/A 100.8 0 79 -3 -7
14:30 NNE 17 N/A N/A 100.9 0 82 -3 -7
13:30 NNE 14 N/A N/A 100.9 0 80 -3 -6
12:30 NNE 14 gust 19 N/A N/A 101.0 0 80 -3 -6
11:30 N 18 N/A N/A 101.0 0 79 -4 -7
10:30 N 19 gust 24 N/A N/A 101.0 -1 78 -4 -8
9:30 N 20 N/A N/A 100.9 -1 78 -4 -8
8:30 N 16 N/A N/A 101.0 -1 79 -4 -7
7:30 N 22 gust 28 N/A N/A 100.8 0 79 -4 -8
6:30 NNW 18 gust 24 N/A N/A 100.7 0 80 -3 *
5:30 NNW 21 gust 27 N/A N/A 100.5 1 83 -2 *
 
Map of Atlantic - Newfoundland marine weather areas Southwestern Grand Banks - 44138 Banquereau - 44139 Tail of the Bank - 44140 Nickerson Bank - 44251 Northeast Burgeo Bank - 44255 Blanc-Sablon Airport Cap Whittle Chevery Natashquan Airport Heath Point Miscou Island Grand Étang Ingonish Beach North Mountain St.Paul Island J.A. Douglas McCurdy Sydney Airport Charlottetown Airport East Point North Cape Argentia Bonavista Burgeo Cape Race Corner Brook Daniel's Harbour Englee Ferolle Point La Scie Port aux Basques Rocky Harbour Sagona Island St. Anthony Airport St. John's Int'l Airport St. Lawrence Stephenville Airport Twillingate Winterland Wreckhouse Cartwright Airport Mary's Harbour Grates Cove Pool's Island Marticot Island Long Pond Îles de la Madeleine Airport
Legend: buoyBuoy land stationLand Station